Aviation Digital Data Service (ADDS)

Output produced by TAFs form (1801 UTC 24 October 2014)
found at http://aviationweather.gov/adds/tafs/
 
KDRO 241724Z 2418/2518 06003KT P6SM SKC 
     FM241900 26009KT P6SM SKC 
     FM250200 02004KT P6SM SKC